sensor_id;sensor_type;location;lat;lon;timestamp;temperature;humidity
36816;DHT22;71982;52.294;6.760;2023-08-06T00:00:38;15.30;99.90
36816;DHT22;71982;52.294;6.760;2023-08-06T00:03:05;15.30;99.90
36816;DHT22;71982;52.294;6.760;2023-08-06T00:05:32;15.30;99.90
36816;DHT22;71982;52.294;6.760;2023-08-06T00:07:58;15.30;99.90
36816;DHT22;71982;52.294;6.760;2023-08-06T00:10:27;15.30;99.90
36816;DHT22;71982;52.294;6.760;2023-08-06T00:12:53;15.30;99.90
36816;DHT22;71982;52.294;6.760;2023-08-06T00:15:20;15.30;99.90
36816;DHT22;71982;52.294;6.760;2023-08-06T00:17:47;15.30;99.90
36816;DHT22;71982;52.294;6.760;2023-08-06T00:20:14;15.30;99.90
36816;DHT22;71982;52.294;6.760;2023-08-06T00:22:40;15.20;99.90
36816;DHT22;71982;52.294;6.760;2023-08-06T00:25:08;15.20;99.90
36816;DHT22;71982;52.294;6.760;2023-08-06T00:27:36;15.20;99.90
36816;DHT22;71982;52.294;6.760;2023-08-06T00:30:04;15.30;99.90
36816;DHT22;71982;52.294;6.760;2023-08-06T00:32:31;15.30;99.90
36816;DHT22;71982;52.294;6.760;2023-08-06T00:34:58;15.30;99.90
36816;DHT22;71982;52.294;6.760;2023-08-06T00:37:24;15.30;99.90
36816;DHT22;71982;52.294;6.760;2023-08-06T00:39:51;15.30;99.90
36816;DHT22;71982;52.294;6.760;2023-08-06T00:42:18;15.30;99.90
36816;DHT22;71982;52.294;6.760;2023-08-06T00:44:47;15.30;99.90
36816;DHT22;71982;52.294;6.760;2023-08-06T00:47:14;15.30;99.90
36816;DHT22;71982;52.294;6.760;2023-08-06T00:49:42;15.30;99.90
36816;DHT22;71982;52.294;6.760;2023-08-06T00:52:09;15.20;99.90
36816;DHT22;71982;52.294;6.760;2023-08-06T00:54:36;15.30;99.90
36816;DHT22;71982;52.294;6.760;2023-08-06T00:57:04;15.20;99.90
36816;DHT22;71982;52.294;6.760;2023-08-06T00:59:31;15.20;99.90
36816;DHT22;71982;52.294;6.760;2023-08-06T01:01:59;15.20;99.90
36816;DHT22;71982;52.294;6.760;2023-08-06T01:04:26;15.20;99.90
36816;DHT22;71982;52.294;6.760;2023-08-06T01:07:02;15.20;99.90
36816;DHT22;71982;52.294;6.760;2023-08-06T01:09:35;15.20;99.90
36816;DHT22;71982;52.294;6.760;2023-08-06T01:12:09;15.20;99.90
36816;DHT22;71982;52.294;6.760;2023-08-06T01:14:47;15.20;99.90
36816;DHT22;71982;52.294;6.760;2023-08-06T01:17:19;15.20;99.90
36816;DHT22;71982;52.294;6.760;2023-08-06T01:19:46;15.20;99.90
36816;DHT22;71982;52.294;6.760;2023-08-06T01:22:14;15.20;99.90
36816;DHT22;71982;52.294;6.760;2023-08-06T01:24:43;15.20;99.90
36816;DHT22;71982;52.294;6.760;2023-08-06T01:27:17;15.20;99.90
36816;DHT22;71982;52.294;6.760;2023-08-06T01:29:56;15.20;99.90
36816;DHT22;71982;52.294;6.760;2023-08-06T01:32:24;15.10;99.90
36816;DHT22;71982;52.294;6.760;2023-08-06T01:34:54;15.20;99.90
36816;DHT22;71982;52.294;6.760;2023-08-06T01:37:22;15.20;99.90
36816;DHT22;71982;52.294;6.760;2023-08-06T01:39:49;15.20;99.90
36816;DHT22;71982;52.294;6.760;2023-08-06T01:42:16;15.20;99.90
36816;DHT22;71982;52.294;6.760;2023-08-06T01:44:43;15.20;99.90
36816;DHT22;71982;52.294;6.760;2023-08-06T01:47:10;15.20;99.90
36816;DHT22;71982;52.294;6.760;2023-08-06T01:49:37;15.10;99.90
36816;DHT22;71982;52.294;6.760;2023-08-06T01:52:04;15.10;99.90
36816;DHT22;71982;52.294;6.760;2023-08-06T01:54:32;15.10;99.90
36816;DHT22;71982;52.294;6.760;2023-08-06T01:56:59;15.10;99.90
36816;DHT22;71982;52.294;6.760;2023-08-06T01:59:26;15.10;99.90
36816;DHT22;71982;52.294;6.760;2023-08-06T02:01:53;15.10;99.90
36816;DHT22;71982;52.294;6.760;2023-08-06T02:04:19;15.10;99.90
36816;DHT22;71982;52.294;6.760;2023-08-06T02:06:46;15.10;99.90
36816;DHT22;71982;52.294;6.760;2023-08-06T02:09:13;15.10;99.90
36816;DHT22;71982;52.294;6.760;2023-08-06T02:11:41;15.10;99.90
36816;DHT22;71982;52.294;6.760;2023-08-06T02:14:08;15.00;99.90
36816;DHT22;71982;52.294;6.760;2023-08-06T02:16:35;15.10;99.90
36816;DHT22;71982;52.294;6.760;2023-08-06T02:19:02;15.00;99.90
36816;DHT22;71982;52.294;6.760;2023-08-06T02:21:28;15.00;99.90
36816;DHT22;71982;52.294;6.760;2023-08-06T02:23:55;15.00;99.90
36816;DHT22;71982;52.294;6.760;2023-08-06T02:26:22;15.00;99.90
36816;DHT22;71982;52.294;6.760;2023-08-06T02:28:50;15.00;99.90
36816;DHT22;71982;52.294;6.760;2023-08-06T02:31:17;15.00;99.90
36816;DHT22;71982;52.294;6.760;2023-08-06T02:33:44;15.00;99.90
36816;DHT22;71982;52.294;6.760;2023-08-06T02:36:10;15.00;99.90
36816;DHT22;71982;52.294;6.760;2023-08-06T02:38:37;15.00;99.90
36816;DHT22;71982;52.294;6.760;2023-08-06T02:41:04;15.00;99.90
36816;DHT22;71982;52.294;6.760;2023-08-06T02:43:31;15.00;99.90
36816;DHT22;71982;52.294;6.760;2023-08-06T02:46:00;15.00;99.90
36816;DHT22;71982;52.294;6.760;2023-08-06T02:48:27;15.00;99.90
36816;DHT22;71982;52.294;6.760;2023-08-06T02:50:57;14.90;99.90
36816;DHT22;71982;52.294;6.760;2023-08-06T02:53:24;14.90;99.90
36816;DHT22;71982;52.294;6.760;2023-08-06T02:55:51;14.90;99.90
36816;DHT22;71982;52.294;6.760;2023-08-06T02:58:18;14.90;99.90
36816;DHT22;71982;52.294;6.760;2023-08-06T03:01:00;14.90;99.90
36816;DHT22;71982;52.294;6.760;2023-08-06T03:03:28;14.90;99.90
36816;DHT22;71982;52.294;6.760;2023-08-06T03:05:55;14.90;99.90
36816;DHT22;71982;52.294;6.760;2023-08-06T03:08:22;14.90;99.90
36816;DHT22;71982;52.294;6.760;2023-08-06T03:10:49;14.90;99.90
36816;DHT22;71982;52.294;6.760;2023-08-06T03:13:16;14.90;99.90
36816;DHT22;71982;52.294;6.760;2023-08-06T03:15:43;14.90;99.90
36816;DHT22;71982;52.294;6.760;2023-08-06T03:18:11;14.80;99.90
36816;DHT22;71982;52.294;6.760;2023-08-06T03:20:38;14.90;99.90
36816;DHT22;71982;52.294;6.760;2023-08-06T03:23:05;14.90;99.90
36816;DHT22;71982;52.294;6.760;2023-08-06T03:25:34;14.80;99.90
36816;DHT22;71982;52.294;6.760;2023-08-06T03:28:01;14.90;99.90
36816;DHT22;71982;52.294;6.760;2023-08-06T03:30:28;14.80;99.90
36816;DHT22;71982;52.294;6.760;2023-08-06T03:32:55;14.90;99.90
36816;DHT22;71982;52.294;6.760;2023-08-06T03:35:23;14.90;99.90
36816;DHT22;71982;52.294;6.760;2023-08-06T03:37:50;14.90;99.90
36816;DHT22;71982;52.294;6.760;2023-08-06T03:40:16;14.90;99.90
36816;DHT22;71982;52.294;6.760;2023-08-06T03:42:43;14.90;99.90
36816;DHT22;71982;52.294;6.760;2023-08-06T03:45:10;15.00;99.90
36816;DHT22;71982;52.294;6.760;2023-08-06T03:47:37;15.00;99.90
36816;DHT22;71982;52.294;6.760;2023-08-06T03:50:04;15.00;99.90
36816;DHT22;71982;52.294;6.760;2023-08-06T03:52:32;15.00;99.90
36816;DHT22;71982;52.294;6.760;2023-08-06T03:54:59;15.00;99.90
36816;DHT22;71982;52.294;6.760;2023-08-06T03:57:26;14.90;99.90
36816;DHT22;71982;52.294;6.760;2023-08-06T03:59:53;15.00;99.90
36816;DHT22;71982;52.294;6.760;2023-08-06T04:02:19;14.90;99.90
36816;DHT22;71982;52.294;6.760;2023-08-06T04:04:46;14.90;99.90
36816;DHT22;71982;52.294;6.760;2023-08-06T04:07:13;14.90;99.90
36816;DHT22;71982;52.294;6.760;2023-08-06T04:09:53;15.00;99.90
36816;DHT22;71982;52.294;6.760;2023-08-06T04:12:20;15.00;99.90
36816;DHT22;71982;52.294;6.760;2023-08-06T04:14:47;14.90;99.90
36816;DHT22;71982;52.294;6.760;2023-08-06T04:17:14;14.90;99.90
36816;DHT22;71982;52.294;6.760;2023-08-06T04:19:41;14.90;99.90
36816;DHT22;71982;52.294;6.760;2023-08-06T04:22:07;14.90;99.90
36816;DHT22;71982;52.294;6.760;2023-08-06T04:24:34;14.90;99.90
36816;DHT22;71982;52.294;6.760;2023-08-06T04:27:03;14.90;99.90
36816;DHT22;71982;52.294;6.760;2023-08-06T04:29:30;14.90;99.90
36816;DHT22;71982;52.294;6.760;2023-08-06T04:31:56;15.00;99.90
36816;DHT22;71982;52.294;6.760;2023-08-06T04:34:23;14.90;99.90
36816;DHT22;71982;52.294;6.760;2023-08-06T04:36:50;14.90;99.90
36816;DHT22;71982;52.294;6.760;2023-08-06T04:39:17;14.90;99.90
36816;DHT22;71982;52.294;6.760;2023-08-06T04:41:44;14.90;99.90
36816;DHT22;71982;52.294;6.760;2023-08-06T04:44:12;14.90;99.90
36816;DHT22;71982;52.294;6.760;2023-08-06T04:46:39;15.00;99.90
36816;DHT22;71982;52.294;6.760;2023-08-06T04:49:05;15.00;99.90
36816;DHT22;71982;52.294;6.760;2023-08-06T04:51:32;15.00;99.90
36816;DHT22;71982;52.294;6.760;2023-08-06T04:53:59;15.00;99.90
36816;DHT22;71982;52.294;6.760;2023-08-06T04:56:26;15.00;99.90
36816;DHT22;71982;52.294;6.760;2023-08-06T04:58:52;15.00;99.90
36816;DHT22;71982;52.294;6.760;2023-08-06T05:01:21;15.00;99.90
36816;DHT22;71982;52.294;6.760;2023-08-06T05:03:47;15.00;99.90
36816;DHT22;71982;52.294;6.760;2023-08-06T05:06:14;15.00;99.90
36816;DHT22;71982;52.294;6.760;2023-08-06T05:08:41;15.10;99.90
36816;DHT22;71982;52.294;6.760;2023-08-06T05:11:08;15.10;99.90
36816;DHT22;71982;52.294;6.760;2023-08-06T05:13:35;15.10;99.90
36816;DHT22;71982;52.294;6.760;2023-08-06T05:16:02;15.10;99.90
36816;DHT22;71982;52.294;6.760;2023-08-06T05:18:31;15.20;99.90
36816;DHT22;71982;52.294;6.760;2023-08-06T05:20:59;15.20;99.90
36816;DHT22;71982;52.294;6.760;2023-08-06T05:23:26;15.20;99.90
36816;DHT22;71982;52.294;6.760;2023-08-06T05:25:53;15.30;99.90
36816;DHT22;71982;52.294;6.760;2023-08-06T05:28:20;15.30;99.90
36816;DHT22;71982;52.294;6.760;2023-08-06T05:30:47;15.40;99.90
36816;DHT22;71982;52.294;6.760;2023-08-06T05:33:13;15.40;99.90
36816;DHT22;71982;52.294;6.760;2023-08-06T05:35:42;15.40;99.90
36816;DHT22;71982;52.294;6.760;2023-08-06T05:38:08;15.50;99.90
36816;DHT22;71982;52.294;6.760;2023-08-06T05:40:35;15.50;99.90
36816;DHT22;71982;52.294;6.760;2023-08-06T05:43:02;15.50;99.90
36816;DHT22;71982;52.294;6.760;2023-08-06T05:45:29;15.60;99.90
36816;DHT22;71982;52.294;6.760;2023-08-06T05:47:56;15.60;99.90
36816;DHT22;71982;52.294;6.760;2023-08-06T05:50:24;15.70;99.90
36816;DHT22;71982;52.294;6.760;2023-08-06T05:52:52;15.80;99.90
36816;DHT22;71982;52.294;6.760;2023-08-06T05:55:20;15.80;99.90
36816;DHT22;71982;52.294;6.760;2023-08-06T05:57:47;15.90;99.90
36816;DHT22;71982;52.294;6.760;2023-08-06T06:00:14;16.00;99.90
36816;DHT22;71982;52.294;6.760;2023-08-06T06:02:40;16.00;99.90
36816;DHT22;71982;52.294;6.760;2023-08-06T06:05:08;16.10;99.90
36816;DHT22;71982;52.294;6.760;2023-08-06T06:07:35;16.20;99.90
36816;DHT22;71982;52.294;6.760;2023-08-06T06:10:03;16.30;99.90
36816;DHT22;71982;52.294;6.760;2023-08-06T06:12:30;16.40;99.90
36816;DHT22;71982;52.294;6.760;2023-08-06T06:14:57;16.60;99.90
36816;DHT22;71982;52.294;6.760;2023-08-06T06:17:26;16.70;99.90
36816;DHT22;71982;52.294;6.760;2023-08-06T06:19:53;16.70;99.90
36816;DHT22;71982;52.294;6.760;2023-08-06T06:22:19;16.80;99.90
36816;DHT22;71982;52.294;6.760;2023-08-06T06:24:46;17.00;99.90
36816;DHT22;71982;52.294;6.760;2023-08-06T06:27:14;17.00;99.90
36816;DHT22;71982;52.294;6.760;2023-08-06T06:29:41;17.00;99.90
36816;DHT22;71982;52.294;6.760;2023-08-06T06:32:08;17.00;99.90
36816;DHT22;71982;52.294;6.760;2023-08-06T06:34:35;17.10;99.90
36816;DHT22;71982;52.294;6.760;2023-08-06T06:37:02;17.10;99.90
36816;DHT22;71982;52.294;6.760;2023-08-06T06:39:29;17.00;99.90
36816;DHT22;71982;52.294;6.760;2023-08-06T06:41:55;17.10;99.90
36816;DHT22;71982;52.294;6.760;2023-08-06T06:44:23;17.00;99.90
36816;DHT22;71982;52.294;6.760;2023-08-06T06:46:50;16.90;99.90
36816;DHT22;71982;52.294;6.760;2023-08-06T06:49:17;17.00;99.90
36816;DHT22;71982;52.294;6.760;2023-08-06T06:51:44;17.10;99.90
36816;DHT22;71982;52.294;6.760;2023-08-06T06:54:11;17.00;99.90
36816;DHT22;71982;52.294;6.760;2023-08-06T06:56:37;16.80;99.90
36816;DHT22;71982;52.294;6.760;2023-08-06T06:59:04;16.60;99.90
36816;DHT22;71982;52.294;6.760;2023-08-06T07:01:32;16.70;99.90
36816;DHT22;71982;52.294;6.760;2023-08-06T07:03:59;16.60;99.90
36816;DHT22;71982;52.294;6.760;2023-08-06T07:06:30;16.70;99.90
36816;DHT22;71982;52.294;6.760;2023-08-06T07:08:57;16.70;99.90
36816;DHT22;71982;52.294;6.760;2023-08-06T07:11:23;16.80;99.90
36816;DHT22;71982;52.294;6.760;2023-08-06T07:13:56;17.00;99.90
36816;DHT22;71982;52.294;6.760;2023-08-06T07:16:23;17.10;99.90
36816;DHT22;71982;52.294;6.760;2023-08-06T07:18:51;17.30;99.90
36816;DHT22;71982;52.294;6.760;2023-08-06T07:21:18;17.30;99.90
36816;DHT22;71982;52.294;6.760;2023-08-06T07:23:46;17.30;99.90
36816;DHT22;71982;52.294;6.760;2023-08-06T07:26:15;17.40;99.90
36816;DHT22;71982;52.294;6.760;2023-08-06T07:28:42;17.40;99.90
36816;DHT22;71982;52.294;6.760;2023-08-06T07:31:09;17.50;99.90
36816;DHT22;71982;52.294;6.760;2023-08-06T07:33:36;17.40;99.90
36816;DHT22;71982;52.294;6.760;2023-08-06T07:36:10;17.20;99.90
36816;DHT22;71982;52.294;6.760;2023-08-06T07:38:37;17.30;99.90
36816;DHT22;71982;52.294;6.760;2023-08-06T07:41:04;17.20;99.90
36816;DHT22;71982;52.294;6.760;2023-08-06T07:43:31;17.20;99.90
36816;DHT22;71982;52.294;6.760;2023-08-06T07:45:58;17.20;99.90
36816;DHT22;71982;52.294;6.760;2023-08-06T07:48:26;17.20;99.90
36816;DHT22;71982;52.294;6.760;2023-08-06T07:50:53;17.30;99.90
36816;DHT22;71982;52.294;6.760;2023-08-06T07:53:22;17.30;99.90
36816;DHT22;71982;52.294;6.760;2023-08-06T07:55:53;17.30;99.90
36816;DHT22;71982;52.294;6.760;2023-08-06T07:58:20;17.30;99.90
36816;DHT22;71982;52.294;6.760;2023-08-06T08:00:47;17.20;99.90
36816;DHT22;71982;52.294;6.760;2023-08-06T08:03:15;17.20;99.90
36816;DHT22;71982;52.294;6.760;2023-08-06T08:05:42;17.10;99.90
36816;DHT22;71982;52.294;6.760;2023-08-06T08:08:09;17.10;99.90
36816;DHT22;71982;52.294;6.760;2023-08-06T08:10:37;17.10;99.90
36816;DHT22;71982;52.294;6.760;2023-08-06T08:13:05;17.20;99.90
36816;DHT22;71982;52.294;6.760;2023-08-06T08:15:32;17.30;99.90
36816;DHT22;71982;52.294;6.760;2023-08-06T08:17:59;17.40;99.90
36816;DHT22;71982;52.294;6.760;2023-08-06T08:20:26;17.50;99.90
36816;DHT22;71982;52.294;6.760;2023-08-06T08:22:57;17.70;99.90
36816;DHT22;71982;52.294;6.760;2023-08-06T08:25:24;17.80;99.90
36816;DHT22;71982;52.294;6.760;2023-08-06T08:27:53;17.90;99.90
36816;DHT22;71982;52.294;6.760;2023-08-06T08:30:20;17.90;99.90
36816;DHT22;71982;52.294;6.760;2023-08-06T08:32:47;17.90;99.90
36816;DHT22;71982;52.294;6.760;2023-08-06T08:35:14;17.70;99.90
36816;DHT22;71982;52.294;6.760;2023-08-06T08:37:41;17.70;99.90
36816;DHT22;71982;52.294;6.760;2023-08-06T08:40:09;17.60;99.90
36816;DHT22;71982;52.294;6.760;2023-08-06T08:42:36;17.80;99.90
36816;DHT22;71982;52.294;6.760;2023-08-06T08:45:07;17.90;99.90
36816;DHT22;71982;52.294;6.760;2023-08-06T08:47:39;18.10;99.90
36816;DHT22;71982;52.294;6.760;2023-08-06T08:50:07;18.40;99.90
36816;DHT22;71982;52.294;6.760;2023-08-06T08:52:35;18.60;99.90
36816;DHT22;71982;52.294;6.760;2023-08-06T08:55:03;18.70;99.90
36816;DHT22;71982;52.294;6.760;2023-08-06T08:57:30;18.60;99.90
36816;DHT22;71982;52.294;6.760;2023-08-06T08:59:56;18.70;99.90
36816;DHT22;71982;52.294;6.760;2023-08-06T09:02:26;18.90;99.90
36816;DHT22;71982;52.294;6.760;2023-08-06T09:04:56;18.90;99.90
36816;DHT22;71982;52.294;6.760;2023-08-06T09:07:25;19.00;99.90
36816;DHT22;71982;52.294;6.760;2023-08-06T09:09:53;19.10;99.90
36816;DHT22;71982;52.294;6.760;2023-08-06T09:12:21;19.10;99.90
36816;DHT22;71982;52.294;6.760;2023-08-06T09:14:48;19.20;99.90
36816;DHT22;71982;52.294;6.760;2023-08-06T09:17:16;19.40;99.90
36816;DHT22;71982;52.294;6.760;2023-08-06T09:19:46;19.50;99.90
36816;DHT22;71982;52.294;6.760;2023-08-06T09:22:15;19.70;99.90
36816;DHT22;71982;52.294;6.760;2023-08-06T09:24:42;19.70;99.90
36816;DHT22;71982;52.294;6.760;2023-08-06T09:27:12;19.40;99.90
36816;DHT22;71982;52.294;6.760;2023-08-06T09:29:43;19.60;99.90
36816;DHT22;71982;52.294;6.760;2023-08-06T13:13:52;21.90;99.90
36816;DHT22;71982;52.294;6.760;2023-08-06T13:16:20;22.20;99.90
36816;DHT22;71982;52.294;6.760;2023-08-06T13:18:46;22.50;99.90
36816;DHT22;71982;52.294;6.760;2023-08-06T13:21:13;22.40;99.90
36816;DHT22;71982;52.294;6.760;2023-08-06T13:23:40;22.50;99.90
36816;DHT22;71982;52.294;6.760;2023-08-06T13:26:07;22.40;99.90
36816;DHT22;71982;52.294;6.760;2023-08-06T13:28:33;22.60;99.90
36816;DHT22;71982;52.294;6.760;2023-08-06T13:31:02;22.80;99.90
36816;DHT22;71982;52.294;6.760;2023-08-06T13:33:28;22.80;99.90
36816;DHT22;71982;52.294;6.760;2023-08-06T13:35:55;23.20;99.90
36816;DHT22;71982;52.294;6.760;2023-08-06T13:38:22;24.20;99.90
36816;DHT22;71982;52.294;6.760;2023-08-06T13:40:49;24.60;99.90
36816;DHT22;71982;52.294;6.760;2023-08-06T13:43:15;24.60;99.90
36816;DHT22;71982;52.294;6.760;2023-08-06T13:45:44;24.20;99.90
36816;DHT22;71982;52.294;6.760;2023-08-06T13:48:12;23.50;99.90
36816;DHT22;71982;52.294;6.760;2023-08-06T13:50:39;22.30;99.90
36816;DHT22;71982;52.294;6.760;2023-08-06T13:53:06;21.40;99.90
36816;DHT22;71982;52.294;6.760;2023-08-06T13:55:32;20.50;99.90
36816;DHT22;71982;52.294;6.760;2023-08-06T13:57:59;20.30;99.90
36816;DHT22;71982;52.294;6.760;2023-08-06T14:00:26;20.00;99.90
36816;DHT22;71982;52.294;6.760;2023-08-06T14:02:53;19.90;99.90
36816;DHT22;71982;52.294;6.760;2023-08-06T14:05:21;19.90;99.90
36816;DHT22;71982;52.294;6.760;2023-08-06T14:07:47;19.80;99.90
36816;DHT22;71982;52.294;6.760;2023-08-06T14:10:14;19.70;99.90
36816;DHT22;71982;52.294;6.760;2023-08-06T14:12:41;19.50;99.90
36816;DHT22;71982;52.294;6.760;2023-08-06T14:15:09;19.20;99.90
36816;DHT22;71982;52.294;6.760;2023-08-06T14:17:36;19.00;99.90
36816;DHT22;71982;52.294;6.760;2023-08-06T14:20:03;19.00;99.90
36816;DHT22;71982;52.294;6.760;2023-08-06T14:22:34;18.80;99.90
36816;DHT22;71982;52.294;6.760;2023-08-06T14:25:01;18.70;99.90
36816;DHT22;71982;52.294;6.760;2023-08-06T14:27:28;18.30;99.90
36816;DHT22;71982;52.294;6.760;2023-08-06T14:29:55;18.10;99.90
36816;DHT22;71982;52.294;6.760;2023-08-06T14:32:21;17.80;99.90
36816;DHT22;71982;52.294;6.760;2023-08-06T14:34:48;17.50;99.90
36816;DHT22;71982;52.294;6.760;2023-08-06T14:37:15;17.20;99.90
36816;DHT22;71982;52.294;6.760;2023-08-06T14:39:43;16.40;99.90
36816;DHT22;71982;52.294;6.760;2023-08-06T14:42:10;16.10;99.90
36816;DHT22;71982;52.294;6.760;2023-08-06T14:44:37;15.90;99.90
36816;DHT22;71982;52.294;6.760;2023-08-06T14:47:04;15.70;99.90
36816;DHT22;71982;52.294;6.760;2023-08-06T14:49:31;15.80;99.90
36816;DHT22;71982;52.294;6.760;2023-08-06T14:51:57;16.00;99.90
36816;DHT22;71982;52.294;6.760;2023-08-06T14:54:27;15.90;99.90
36816;DHT22;71982;52.294;6.760;2023-08-06T14:56:55;15.90;99.90
36816;DHT22;71982;52.294;6.760;2023-08-06T14:59:22;15.90;99.90
36816;DHT22;71982;52.294;6.760;2023-08-06T15:01:49;16.00;99.90
36816;DHT22;71982;52.294;6.760;2023-08-06T15:04:16;16.10;99.90
36816;DHT22;71982;52.294;6.760;2023-08-06T15:06:43;16.10;99.90
36816;DHT22;71982;52.294;6.760;2023-08-06T15:09:10;16.10;99.90
36816;DHT22;71982;52.294;6.760;2023-08-06T15:11:37;16.20;99.90
36816;DHT22;71982;52.294;6.760;2023-08-06T15:14:05;16.20;99.90
36816;DHT22;71982;52.294;6.760;2023-08-06T15:16:32;16.20;99.90
36816;DHT22;71982;52.294;6.760;2023-08-06T15:18:59;16.20;99.90
36816;DHT22;71982;52.294;6.760;2023-08-06T15:21:26;16.10;99.90
36816;DHT22;71982;52.294;6.760;2023-08-06T15:23:53;16.20;99.90
36816;DHT22;71982;52.294;6.760;2023-08-06T15:26:20;16.20;99.90
36816;DHT22;71982;52.294;6.760;2023-08-06T15:28:47;16.30;99.90
36816;DHT22;71982;52.294;6.760;2023-08-06T15:31:19;16.30;99.90
36816;DHT22;71982;52.294;6.760;2023-08-06T15:33:53;16.30;99.90
36816;DHT22;71982;52.294;6.760;2023-08-06T15:36:29;16.40;99.90
36816;DHT22;71982;52.294;6.760;2023-08-06T15:38:56;16.50;99.90
36816;DHT22;71982;52.294;6.760;2023-08-06T15:41:23;16.40;99.90
36816;DHT22;71982;52.294;6.760;2023-08-06T15:43:56;16.40;99.90
36816;DHT22;71982;52.294;6.760;2023-08-06T15:46:24;16.50;99.90
36816;DHT22;71982;52.294;6.760;2023-08-06T15:48:51;16.50;99.90
36816;DHT22;71982;52.294;6.760;2023-08-06T15:51:20;16.50;99.90
36816;DHT22;71982;52.294;6.760;2023-08-06T15:53:50;16.50;99.90
36816;DHT22;71982;52.294;6.760;2023-08-06T15:56:45;16.50;99.90
36816;DHT22;71982;52.294;6.760;2023-08-06T15:59:25;16.40;99.90
36816;DHT22;71982;52.294;6.760;2023-08-06T16:02:29;16.30;99.90
36816;DHT22;71982;52.294;6.760;2023-08-06T16:04:56;16.20;99.90
36816;DHT22;71982;52.294;6.760;2023-08-06T16:07:26;16.20;99.90
36816;DHT22;71982;52.294;6.760;2023-08-06T16:10:26;16.20;99.90
36816;DHT22;71982;52.294;6.760;2023-08-06T16:12:56;16.20;99.90
36816;DHT22;71982;52.294;6.760;2023-08-06T16:15:27;16.20;99.90
36816;DHT22;71982;52.294;6.760;2023-08-06T16:17:58;16.20;99.90
36816;DHT22;71982;52.294;6.760;2023-08-06T16:20:28;16.20;99.90
36816;DHT22;71982;52.294;6.760;2023-08-06T16:22:57;16.10;99.90
36816;DHT22;71982;52.294;6.760;2023-08-06T16:25:27;16.20;99.90
36816;DHT22;71982;52.294;6.760;2023-08-06T16:27:57;16.20;99.90
36816;DHT22;71982;52.294;6.760;2023-08-06T16:30:24;16.10;99.90
36816;DHT22;71982;52.294;6.760;2023-08-06T16:33:01;16.10;99.90
36816;DHT22;71982;52.294;6.760;2023-08-06T16:35:30;16.20;99.90
36816;DHT22;71982;52.294;6.760;2023-08-06T16:37:57;16.20;99.90
36816;DHT22;71982;52.294;6.760;2023-08-06T16:40:38;16.10;99.90
36816;DHT22;71982;52.294;6.760;2023-08-06T16:43:08;16.10;99.90
36816;DHT22;71982;52.294;6.760;2023-08-06T16:45:38;15.90;99.90
36816;DHT22;71982;52.294;6.760;2023-08-06T16:48:09;16.00;99.90
36816;DHT22;71982;52.294;6.760;2023-08-06T16:50:38;15.90;99.90
36816;DHT22;71982;52.294;6.760;2023-08-06T16:53:08;15.90;99.90
36816;DHT22;71982;52.294;6.760;2023-08-06T16:55:35;15.90;99.90
36816;DHT22;71982;52.294;6.760;2023-08-06T16:58:04;15.80;99.90
36816;DHT22;71982;52.294;6.760;2023-08-06T17:00:30;15.90;99.90
36816;DHT22;71982;52.294;6.760;2023-08-06T17:02:57;15.90;99.90
36816;DHT22;71982;52.294;6.760;2023-08-06T17:05:28;15.90;99.90
36816;DHT22;71982;52.294;6.760;2023-08-06T17:07:55;15.90;99.90
36816;DHT22;71982;52.294;6.760;2023-08-06T17:10:25;15.90;99.90
36816;DHT22;71982;52.294;6.760;2023-08-06T17:12:55;16.00;99.90
36816;DHT22;71982;52.294;6.760;2023-08-06T17:15:26;16.00;99.90
36816;DHT22;71982;52.294;6.760;2023-08-06T17:17:58;16.00;99.90
36816;DHT22;71982;52.294;6.760;2023-08-06T17:20:40;15.90;99.90
36816;DHT22;71982;52.294;6.760;2023-08-06T17:23:13;15.90;99.90
36816;DHT22;71982;52.294;6.760;2023-08-06T17:25:40;15.90;99.90
36816;DHT22;71982;52.294;6.760;2023-08-06T17:28:11;15.80;99.90
36816;DHT22;71982;52.294;6.760;2023-08-06T17:30:44;15.90;99.90
36816;DHT22;71982;52.294;6.760;2023-08-06T17:33:11;15.90;99.90
36816;DHT22;71982;52.294;6.760;2023-08-06T17:35:43;15.80;99.90
36816;DHT22;71982;52.294;6.760;2023-08-06T17:38:10;15.80;99.90
36816;DHT22;71982;52.294;6.760;2023-08-06T17:40:42;15.80;99.90
36816;DHT22;71982;52.294;6.760;2023-08-06T17:43:12;15.80;99.90
36816;DHT22;71982;52.294;6.760;2023-08-06T17:45:44;15.70;99.90
36816;DHT22;71982;52.294;6.760;2023-08-06T17:48:24;15.80;99.90
36816;DHT22;71982;52.294;6.760;2023-08-06T17:51:02;15.70;99.90
36816;DHT22;71982;52.294;6.760;2023-08-06T17:53:32;15.80;99.90
36816;DHT22;71982;52.294;6.760;2023-08-06T17:56:04;15.60;99.90
36816;DHT22;71982;52.294;6.760;2023-08-06T17:58:31;15.60;99.90
36816;DHT22;71982;52.294;6.760;2023-08-06T18:01:01;15.60;99.90
36816;DHT22;71982;52.294;6.760;2023-08-06T18:03:27;15.60;99.90
36816;DHT22;71982;52.294;6.760;2023-08-06T18:05:57;15.50;99.90
36816;DHT22;71982;52.294;6.760;2023-08-06T18:08:27;15.50;99.90
36816;DHT22;71982;52.294;6.760;2023-08-06T18:11:11;15.50;99.90
36816;DHT22;71982;52.294;6.760;2023-08-06T18:14:01;15.50;99.90
36816;DHT22;71982;52.294;6.760;2023-08-06T18:16:28;15.40;99.90
36816;DHT22;71982;52.294;6.760;2023-08-06T18:18:57;15.40;99.90
36816;DHT22;71982;52.294;6.760;2023-08-06T18:21:24;15.40;99.90
36816;DHT22;71982;52.294;6.760;2023-08-06T18:23:52;15.40;99.90
36816;DHT22;71982;52.294;6.760;2023-08-06T18:26:19;15.40;99.90
36816;DHT22;71982;52.294;6.760;2023-08-06T18:28:46;15.30;99.90
36816;DHT22;71982;52.294;6.760;2023-08-06T18:31:13;15.40;99.90
36816;DHT22;71982;52.294;6.760;2023-08-06T18:33:41;15.30;99.90
36816;DHT22;71982;52.294;6.760;2023-08-06T18:36:08;15.30;99.90
36816;DHT22;71982;52.294;6.760;2023-08-06T18:38:35;15.30;99.90
36816;DHT22;71982;52.294;6.760;2023-08-06T18:41:03;15.20;99.90
36816;DHT22;71982;52.294;6.760;2023-08-06T18:43:30;15.20;99.90
36816;DHT22;71982;52.294;6.760;2023-08-06T18:45:57;15.20;99.90
36816;DHT22;71982;52.294;6.760;2023-08-06T18:48:24;15.10;99.90
36816;DHT22;71982;52.294;6.760;2023-08-06T18:50:50;15.10;99.90
36816;DHT22;71982;52.294;6.760;2023-08-06T18:53:18;15.10;99.90
36816;DHT22;71982;52.294;6.760;2023-08-06T18:55:47;15.10;99.90
36816;DHT22;71982;52.294;6.760;2023-08-06T18:58:15;15.10;99.90
36816;DHT22;71982;52.294;6.760;2023-08-06T19:00:43;14.90;99.90
36816;DHT22;71982;52.294;6.760;2023-08-06T19:03:10;14.90;99.90
36816;DHT22;71982;52.294;6.760;2023-08-06T19:05:38;14.90;99.90
36816;DHT22;71982;52.294;6.760;2023-08-06T19:08:06;14.90;99.90
36816;DHT22;71982;52.294;6.760;2023-08-06T19:10:33;14.90;99.90
36816;DHT22;71982;52.294;6.760;2023-08-06T19:13:06;14.90;99.90
36816;DHT22;71982;52.294;6.760;2023-08-06T19:15:35;14.80;99.90
36816;DHT22;71982;52.294;6.760;2023-08-06T19:18:02;14.70;99.90